createdAt,value
2022-12-23T00:00:27.897Z,0
2022-12-23T00:01:28.160Z,0
2022-12-23T00:02:27.820Z,0
2022-12-23T00:03:28.229Z,0
2022-12-23T00:04:27.521Z,0
2022-12-23T00:05:30.209Z,0
2022-12-23T00:06:27.763Z,0
2022-12-23T00:07:27.725Z,0
2022-12-23T00:08:27.449Z,0
2022-12-23T00:09:27.416Z,0
2022-12-23T00:10:27.401Z,0
2022-12-23T00:11:27.151Z,0
2022-12-23T00:12:27.652Z,0
2022-12-23T00:13:27.139Z,0
2022-12-23T00:14:30.949Z,0
2022-12-23T00:15:27.577Z,0
2022-12-23T00:16:27.858Z,0
2022-12-23T00:17:32.268Z,0
2022-12-23T00:18:27.567Z,0
2022-12-23T00:19:27.091Z,0
2022-12-23T00:20:26.998Z,0
2022-12-23T00:21:27.265Z,0
2022-12-23T00:22:26.955Z,0
2022-12-23T00:23:27.239Z,0
2022-12-23T00:24:27.441Z,0
2022-12-23T00:25:26.939Z,0
2022-12-23T00:26:26.944Z,0
2022-12-23T00:27:27.190Z,0
2022-12-23T00:28:27.286Z,0
2022-12-23T00:29:27.371Z,0
2022-12-23T00:30:27.373Z,0
2022-12-23T00:31:27.426Z,0
2022-12-23T00:32:27.723Z,0
2022-12-23T00:33:27.066Z,0
2022-12-23T00:34:27.051Z,0
2022-12-23T00:35:27.028Z,0
2022-12-23T00:36:27.319Z,0
2022-12-23T00:37:27.016Z,0
2022-12-23T00:38:26.717Z,0
2022-12-23T00:39:27.269Z,0
2022-12-23T00:40:26.952Z,0
2022-12-23T00:41:27.533Z,0
2022-12-23T00:42:27.548Z,0
2022-12-23T00:43:27.802Z,0
2022-12-23T00:44:27.298Z,0
2022-12-23T00:45:27.567Z,0
2022-12-23T00:46:28.094Z,0
2022-12-23T00:47:26.946Z,0
2022-12-23T00:48:27.680Z,0
2022-12-23T00:49:27.700Z,0
2022-12-23T00:50:27.658Z,0
2022-12-23T00:51:27.397Z,0
2022-12-23T00:52:27.408Z,0
2022-12-23T00:53:27.701Z,0
2022-12-23T00:54:26.860Z,0
2022-12-23T00:55:27.373Z,0
2022-12-23T00:56:26.813Z,0
2022-12-23T00:57:27.307Z,0
2022-12-23T00:58:27.610Z,0
2022-12-23T00:59:27.534Z,0
2022-12-23T01:00:27.596Z,0
2022-12-23T01:01:28.203Z,0
2022-12-23T01:02:28.472Z,0
2022-12-23T01:03:27.143Z,0
2022-12-23T01:04:27.302Z,0
2022-12-23T01:05:27.174Z,0
2022-12-23T01:06:27.214Z,0
2022-12-23T01:07:26.939Z,0
2022-12-23T01:08:26.895Z,0
2022-12-23T01:09:27.416Z,0
2022-12-23T01:10:26.846Z,0
2022-12-23T01:11:26.884Z,0
2022-12-23T01:12:27.138Z,0
2022-12-23T01:13:26.828Z,0
2022-12-23T01:14:26.817Z,0
2022-12-23T01:15:26.807Z,0
2022-12-23T01:16:27.669Z,0
2022-12-23T01:17:27.300Z,0
2022-12-23T01:18:26.753Z,0
2022-12-23T01:19:26.973Z,0
2022-12-23T01:20:27.322Z,0
2022-12-23T01:21:26.726Z,0
2022-12-23T01:22:26.698Z,0
2022-12-23T01:23:26.936Z,0
2022-12-23T01:24:26.671Z,0
2022-12-23T01:25:26.931Z,0
2022-12-23T01:26:26.639Z,0
2022-12-23T01:27:26.929Z,0
2022-12-23T01:28:26.873Z,0
2022-12-23T01:29:26.843Z,0
2022-12-23T01:30:26.869Z,0
2022-12-23T01:31:27.314Z,0
2022-12-23T01:32:27.281Z,0
2022-12-23T01:33:27.217Z,0
2022-12-23T01:34:31.163Z,0
2022-12-23T01:35:26.740Z,0
2022-12-23T01:36:26.893Z,0
2022-12-23T01:37:26.723Z,0
2022-12-23T01:38:26.454Z,0
2022-12-23T01:39:58.753Z,0
2022-12-23T01:40:26.693Z,0
2022-12-23T01:41:26.932Z,0
2022-12-23T01:42:26.699Z,0
2022-12-23T01:43:26.636Z,0
2022-12-23T01:44:26.637Z,0
2022-12-23T01:45:26.799Z,0
2022-12-23T01:46:27.179Z,0
2022-12-23T01:47:26.331Z,0
2022-12-23T01:48:26.912Z,0
2022-12-23T01:49:26.296Z,0
2022-12-23T01:50:26.840Z,0
2022-12-23T01:51:26.552Z,0
2022-12-23T01:52:26.843Z,0
2022-12-23T01:53:26.785Z,0
2022-12-23T01:54:26.482Z,0
2022-12-23T01:55:26.458Z,0
2022-12-23T01:56:26.468Z,0
2022-12-23T01:57:26.423Z,0
2022-12-23T01:58:26.160Z,0
2022-12-23T01:59:26.767Z,0
2022-12-23T02:00:26.407Z,0
2022-12-23T02:01:26.938Z,0
2022-12-23T02:02:27.574Z,0
2022-12-23T02:03:26.716Z,0
2022-12-23T02:04:26.624Z,0
2022-12-23T02:05:26.329Z,0
2022-12-23T02:06:25.797Z,0
2022-12-23T02:07:26.300Z,0
2022-12-23T02:08:26.372Z,0
2022-12-23T02:09:26.028Z,0
2022-12-23T02:10:26.259Z,0
2022-12-23T02:11:26.213Z,0
2022-12-23T02:12:26.015Z,0
2022-12-23T02:13:26.229Z,0
2022-12-23T02:14:26.195Z,0
2022-12-23T02:15:26.209Z,0
2022-12-23T02:16:26.133Z,0
2022-12-23T02:17:26.245Z,0
2022-12-23T02:18:26.397Z,0
2022-12-23T02:19:26.121Z,0
2022-12-23T02:20:26.377Z,0
2022-12-23T02:21:26.440Z,0
2022-12-23T02:22:26.101Z,0
2022-12-23T02:23:26.330Z,0
2022-12-23T02:24:26.350Z,0
2022-12-23T02:25:26.075Z,0
2022-12-23T02:26:25.508Z,0
2022-12-23T02:27:25.750Z,0
2022-12-23T02:28:25.757Z,0
2022-12-23T02:29:26.227Z,0
2022-12-23T02:30:25.727Z,0
2022-12-23T02:31:26.448Z,0
2022-12-23T02:32:25.663Z,0
2022-12-23T02:33:25.904Z,0
2022-12-23T02:34:26.196Z,0
2022-12-23T02:35:25.863Z,0
2022-12-23T02:36:25.878Z,0
2022-12-23T02:37:25.610Z,0
2022-12-23T02:38:25.860Z,0
2022-12-23T02:39:25.550Z,0
2022-12-23T02:40:26.130Z,0
2022-12-23T02:41:25.799Z,0
2022-12-23T02:42:26.047Z,0
2022-12-23T02:43:25.998Z,0
2022-12-23T02:44:25.720Z,0
2022-12-23T02:45:25.966Z,0
2022-12-23T02:46:26.141Z,0
2022-12-23T02:47:26.019Z,0
2022-12-23T02:48:25.675Z,0
2022-12-23T02:49:25.162Z,0
2022-12-23T02:50:25.671Z,0
2022-12-23T02:51:25.156Z,0
2022-12-23T02:52:25.920Z,0
2022-12-23T02:53:25.875Z,0
2022-12-23T02:54:25.595Z,0
2022-12-23T02:55:25.065Z,0
2022-12-23T02:56:25.908Z,0
2022-12-23T02:57:25.863Z,0
2022-12-23T02:58:25.017Z,0
2022-12-23T02:59:25.287Z,0
2022-12-23T03:00:25.509Z,0
2022-12-23T03:01:26.085Z,0
2022-12-23T03:02:26.912Z,0
2022-12-23T03:03:26.572Z,0
2022-12-23T03:04:25.451Z,0
2022-12-23T03:05:25.164Z,0
2022-12-23T03:06:25.413Z,0
2022-12-23T03:07:27.864Z,0
2022-12-23T03:08:25.860Z,0
2022-12-23T03:09:25.376Z,0
2022-12-23T03:10:25.664Z,0
2022-12-23T03:11:25.328Z,0
2022-12-23T03:12:25.690Z,0
2022-12-23T03:13:25.044Z,0
2022-12-23T03:14:25.193Z,0
2022-12-23T03:15:25.610Z,0
2022-12-23T03:16:25.515Z,0
2022-12-23T03:17:25.531Z,0
2022-12-23T03:18:25.225Z,0
2022-12-23T03:19:25.269Z,0
2022-12-23T03:20:24.968Z,0
2022-12-23T03:21:25.201Z,0
2022-12-23T03:22:25.191Z,0
2022-12-23T03:23:25.202Z,0
2022-12-23T03:24:25.174Z,0
2022-12-23T03:25:25.433Z,0
2022-12-23T03:26:25.112Z,0
2022-12-23T03:27:25.150Z,0
2022-12-23T03:28:25.209Z,0
2022-12-23T03:29:24.803Z,0
2022-12-23T03:30:25.328Z,0
2022-12-23T03:31:25.633Z,0
2022-12-23T03:32:25.067Z,0
2022-12-23T03:49:58.200Z,0
2022-12-23T03:50:57.556Z,0
2022-12-23T03:51:57.793Z,0
2022-12-23T03:52:57.812Z,0
2022-12-23T03:53:57.519Z,0
2022-12-23T03:54:58.020Z,0
2022-12-23T03:55:59.112Z,0
2022-12-23T03:56:57.436Z,0
2022-12-23T03:57:57.688Z,0
2022-12-23T03:58:57.670Z,0
2022-12-23T03:59:57.474Z,0
2022-12-23T04:00:57.913Z,0
2022-12-23T04:01:58.614Z,0
2022-12-23T04:02:58.792Z,0
2022-12-23T04:03:58.403Z,0
2022-12-23T04:04:57.316Z,0
2022-12-23T04:05:58.143Z,0
2022-12-23T04:06:57.810Z,0
2022-12-23T04:07:57.807Z,0
2022-12-23T04:08:57.018Z,0
2022-12-23T04:09:57.495Z,0
2022-12-23T04:10:57.510Z,0
2022-12-23T04:11:57.730Z,0
2022-12-23T04:12:57.694Z,0
2022-12-23T04:13:57.452Z,0
2022-12-23T04:14:57.418Z,0
2022-12-23T04:15:57.872Z,0
2022-12-23T04:16:57.139Z,0
2022-12-23T04:17:57.651Z,0
2022-12-23T04:18:57.590Z,0
2022-12-23T04:19:57.398Z,0
2022-12-23T04:20:57.084Z,0
2022-12-23T04:21:57.741Z,0
2022-12-23T04:22:57.556Z,0
2022-12-23T04:23:57.290Z,0
2022-12-23T04:24:57.011Z,0
2022-12-23T04:25:57.002Z,0
2022-12-23T04:26:57.484Z,0
2022-12-23T04:27:57.471Z,0
2022-12-23T04:28:57.814Z,0
2022-12-23T04:29:57.841Z,0
2022-12-23T04:30:57.953Z,0
2022-12-23T04:31:58.432Z,0
2022-12-23T04:32:57.285Z,0
2022-12-23T04:33:57.777Z,0
2022-12-23T04:34:57.746Z,0
2022-12-23T04:35:57.230Z,0
2022-12-23T04:36:57.725Z,0
2022-12-23T04:37:58.148Z,0
2022-12-23T04:38:57.423Z,0
2022-12-23T04:39:57.665Z,0
2022-12-23T04:40:57.653Z,0
2022-12-23T04:41:57.678Z,0
2022-12-23T04:42:57.724Z,0
2022-12-23T04:44:02.927Z,0
2022-12-23T04:44:57.822Z,0
2022-12-23T04:45:57.336Z,0
2022-12-23T04:46:57.939Z,0
2022-12-23T04:47:57.340Z,0
2022-12-23T04:48:57.575Z,0
2022-12-23T04:49:57.251Z,0
2022-12-23T04:50:57.242Z,0
2022-12-23T04:51:57.497Z,0
2022-12-23T04:52:57.225Z,0
2022-12-23T04:53:57.865Z,0
2022-12-23T04:54:57.492Z,0
2022-12-23T04:55:57.480Z,0
2022-12-23T04:56:57.470Z,0
2022-12-23T04:57:57.154Z,0
2022-12-23T04:58:57.139Z,0
2022-12-23T04:59:57.380Z,0
2022-12-23T05:00:57.468Z,0
2022-12-23T05:01:58.517Z,0
2022-12-23T05:02:58.181Z,0
2022-12-23T05:03:57.082Z,0
2022-12-23T05:04:57.314Z,0
2022-12-23T05:05:57.038Z,0
2022-12-23T05:06:57.061Z,0
2022-12-23T05:07:57.244Z,0
2022-12-23T05:08:56.986Z,0
2022-12-23T05:09:57.874Z,0
2022-12-23T05:10:56.715Z,0
2022-12-23T05:11:56.930Z,0
2022-12-23T05:12:57.020Z,0
2022-12-23T05:13:56.917Z,0
2022-12-23T05:14:56.664Z,0
2022-12-23T05:15:57.439Z,0
2022-12-23T05:17:00.850Z,0
2022-12-23T05:17:56.603Z,0
2022-12-23T05:18:56.855Z,0
2022-12-23T05:19:56.834Z,0
2022-12-23T05:20:57.381Z,0
2022-12-23T05:21:57.309Z,0
2022-12-23T05:22:57.035Z,0
2022-12-23T05:23:57.269Z,0
2022-12-23T05:24:56.997Z,0
2022-12-23T05:25:57.524Z,0
2022-12-23T05:27:06.194Z,0
2022-12-23T05:27:56.994Z,0
2022-12-23T05:28:56.955Z,0
2022-12-23T05:29:56.919Z,0
2022-12-23T05:30:56.683Z,0
2022-12-23T05:31:57.424Z,0
2022-12-23T05:32:56.959Z,0
2022-12-23T05:34:00.900Z,0
2022-12-23T05:34:56.858Z,0
2022-12-23T05:35:56.871Z,0
2022-12-23T05:36:56.838Z,0
2022-12-23T05:37:56.913Z,0
2022-12-23T05:38:56.532Z,0
2022-12-23T05:39:56.844Z,0
2022-12-23T05:40:56.925Z,0
2022-12-23T05:41:57.176Z,0
2022-12-23T05:42:56.757Z,0
2022-12-23T05:43:56.744Z,0
2022-12-23T05:44:57.003Z,0
2022-12-23T05:45:57.048Z,0
2022-12-23T05:46:56.967Z,0
2022-12-23T05:47:57.017Z,0
2022-12-23T05:48:56.429Z,0
2022-12-23T05:49:56.893Z,0
2022-12-23T05:50:56.605Z,0
2022-12-23T05:51:56.867Z,0
2022-12-23T05:52:56.091Z,0
2022-12-23T05:53:56.112Z,0
2022-12-23T05:54:56.811Z,0
2022-12-23T05:55:56.304Z,0
2022-12-23T05:56:57.007Z,0
2022-12-23T05:57:57.287Z,0
2022-12-23T05:58:56.475Z,0
2022-12-23T05:59:56.774Z,0
2022-12-23T06:00:56.757Z,0
2022-12-23T06:01:57.034Z,0
2022-12-23T06:03:03.908Z,0
2022-12-23T06:03:57.666Z,0
2022-12-23T06:04:56.437Z,0
2022-12-23T06:05:56.406Z,0
2022-12-23T06:06:56.669Z,0
2022-12-23T06:07:56.408Z,0
2022-12-23T06:09:05.078Z,0
2022-12-23T06:09:55.846Z,0
2022-12-23T06:10:56.086Z,0
2022-12-23T06:11:56.063Z,0
2022-12-23T06:12:56.575Z,0
2022-12-23T06:13:56.660Z,0
2022-12-23T06:14:56.271Z,0
2022-12-23T06:15:56.305Z,0
2022-12-23T06:16:56.852Z,0
2022-12-23T06:17:56.019Z,0
2022-12-23T06:18:56.236Z,0
2022-12-23T06:19:56.497Z,0
2022-12-23T06:20:55.967Z,0
2022-12-23T06:21:56.424Z,0
2022-12-23T06:22:55.925Z,0
2022-12-23T06:23:56.137Z,0
2022-12-23T06:24:56.552Z,0
2022-12-23T06:25:56.379Z,0
2022-12-23T06:27:03.748Z,0
2022-12-23T06:27:56.350Z,0
2022-12-23T06:28:56.118Z,0
2022-12-23T06:29:56.587Z,0
2022-12-23T06:30:55.790Z,0
2022-12-23T06:31:56.174Z,0
2022-12-23T06:32:56.045Z,0
2022-12-23T06:33:56.271Z,0
2022-12-23T06:34:55.862Z,0
2022-12-23T06:35:55.982Z,0
2022-12-23T06:36:55.984Z,0
2022-12-23T06:37:55.712Z,0
2022-12-23T06:38:55.940Z,0
2022-12-23T06:39:55.643Z,0
2022-12-23T06:40:55.661Z,0
2022-12-23T06:41:55.636Z,0
2022-12-23T06:42:55.669Z,0
2022-12-23T06:44:01.910Z,0
2022-12-23T06:44:56.096Z,0
2022-12-23T06:45:56.578Z,0
2022-12-23T06:46:55.546Z,0
2022-12-23T06:47:55.530Z,0
2022-12-23T06:48:56.050Z,0
2022-12-23T06:49:56.075Z,0
2022-12-23T06:50:56.902Z,0
2022-12-23T06:51:55.482Z,0
2022-12-23T06:52:55.707Z,0
2022-12-23T06:53:56.008Z,0
2022-12-23T06:54:55.729Z,0
2022-12-23T06:55:55.668Z,0
2022-12-23T06:56:55.953Z,0
2022-12-23T06:57:55.397Z,0
2022-12-23T06:58:55.106Z,0
2022-12-23T06:59:55.397Z,0
2022-12-23T07:00:55.918Z,0
2022-12-23T07:01:56.816Z,0
2022-12-23T07:02:56.147Z,0
2022-12-23T07:03:55.450Z,0
2022-12-23T07:04:55.316Z,0
2022-12-23T07:05:55.286Z,0
2022-12-23T07:06:55.046Z,0
2022-12-23T07:07:55.234Z,0
2022-12-23T07:08:55.480Z,0
2022-12-23T07:09:55.775Z,0
2022-12-23T07:10:55.459Z,0
2022-12-23T07:11:55.704Z,5
2022-12-23T07:12:59.967Z,5
2022-12-23T07:13:55.415Z,5
2022-12-23T07:14:55.165Z,5
2022-12-23T07:15:55.398Z,0
2022-12-23T07:16:56.205Z,0
2022-12-23T07:17:55.779Z,0
2022-12-23T07:18:55.346Z,5
2022-12-23T07:19:55.083Z,5
2022-12-23T07:20:55.067Z,5
2022-12-23T07:21:55.309Z,5
2022-12-23T07:22:55.380Z,5
2022-12-23T07:23:55.314Z,5
2022-12-23T07:24:55.534Z,5
2022-12-23T07:25:55.251Z,10
2022-12-23T07:26:54.972Z,10
2022-12-23T07:27:55.220Z,10
2022-12-23T07:28:54.953Z,10
2022-12-23T07:29:54.962Z,10
2022-12-23T07:30:55.200Z,10
2022-12-23T07:31:56.129Z,10
2022-12-23T07:32:54.884Z,10
2022-12-23T07:33:55.554Z,5
2022-12-23T07:34:55.387Z,5
2022-12-23T07:35:55.375Z,5
2022-12-23T07:36:55.127Z,5
2022-12-23T07:37:55.340Z,5
2022-12-23T07:38:54.819Z,5
2022-12-23T07:39:55.039Z,5
2022-12-23T07:40:55.036Z,5
2022-12-23T07:42:45.965Z,10
2022-12-23T07:42:57.697Z,10
2022-12-23T07:43:57.191Z,10
2022-12-23T07:44:57.415Z,15
2022-12-23T07:46:07.666Z,15
2022-12-23T07:46:57.735Z,15
2022-12-23T07:47:57.718Z,15
2022-12-23T07:48:57.757Z,15
2022-12-23T07:49:57.998Z,20
2022-12-23T07:50:57.664Z,20
2022-12-23T07:51:57.916Z,20
2022-12-23T07:52:57.911Z,20
2022-12-23T07:53:57.873Z,20
2022-12-23T07:54:57.593Z,20
2022-12-23T07:56:05.508Z,20
2022-12-23T07:56:57.833Z,20
2022-12-23T07:57:57.600Z,20
2022-12-23T07:58:57.265Z,20
2022-12-23T07:59:57.507Z,25
2022-12-23T08:00:57.038Z,30
2022-12-23T08:01:58.235Z,35
2022-12-23T08:02:58.139Z,35
2022-12-23T08:03:57.778Z,40
2022-12-23T08:04:58.158Z,40
2022-12-23T08:05:57.899Z,35
2022-12-23T08:06:57.420Z,30
2022-12-23T08:07:57.749Z,25
2022-12-23T08:08:58.015Z,20
2022-12-23T08:09:57.479Z,20
2022-12-23T08:10:58.121Z,20
2022-12-23T08:11:57.943Z,25
2022-12-23T08:12:57.967Z,25
2022-12-23T08:13:57.951Z,25
2022-12-23T08:14:58.172Z,30
2022-12-23T08:15:58.175Z,35
2022-12-23T08:16:58.816Z,35
2022-12-23T08:17:57.911Z,35
2022-12-23T08:18:57.602Z,40
2022-12-23T08:19:57.886Z,45
2022-12-23T08:20:58.118Z,45
2022-12-23T08:21:58.261Z,50
2022-12-23T08:22:57.835Z,50
2022-12-23T08:23:57.552Z,55
2022-12-23T08:24:58.041Z,60
2022-12-23T08:25:57.819Z,55
2022-12-23T08:26:57.831Z,45
2022-12-23T08:27:57.226Z,40
2022-12-23T08:28:57.469Z,40
2022-12-23T08:29:57.713Z,40
2022-12-23T08:30:57.573Z,40
2022-12-23T08:31:57.411Z,40
2022-12-23T08:32:57.665Z,45
2022-12-23T08:33:57.940Z,50
2022-12-23T08:34:57.655Z,45
2022-12-23T08:35:57.643Z,45
2022-12-23T08:36:57.387Z,50
2022-12-23T08:37:57.951Z,55
2022-12-23T08:38:57.114Z,60
2022-12-23T08:39:57.785Z,65
2022-12-23T08:40:57.598Z,70
2022-12-23T08:41:57.302Z,75
2022-12-23T08:42:57.016Z,75
2022-12-23T08:43:57.867Z,90
2022-12-23T08:44:57.020Z,80
2022-12-23T08:45:57.533Z,75
2022-12-23T08:46:57.513Z,80
2022-12-23T08:47:57.684Z,80
2022-12-23T08:48:59.037Z,75
2022-12-23T08:49:57.181Z,75
2022-12-23T08:50:57.188Z,75
2022-12-23T08:51:57.420Z,70
2022-12-23T08:52:57.409Z,70
2022-12-23T08:54:05.895Z,75
2022-12-23T08:54:57.632Z,80
2022-12-23T08:55:57.584Z,85
2022-12-23T08:56:57.325Z,85
2022-12-23T08:57:57.307Z,85
2022-12-23T08:58:57.329Z,75
2022-12-23T08:59:57.294Z,70
2022-12-23T09:00:57.591Z,70
2022-12-23T09:01:58.930Z,75
2022-12-23T09:02:57.641Z,75
2022-12-23T09:03:57.218Z,75
2022-12-23T09:04:57.213Z,75
2022-12-23T09:05:57.177Z,75
2022-12-23T09:06:57.460Z,70
2022-12-23T09:07:57.452Z,60
2022-12-23T09:08:57.450Z,55
2022-12-23T09:09:57.514Z,60
2022-12-23T09:10:56.861Z,55
2022-12-23T09:11:57.120Z,55
2022-12-23T09:13:00.091Z,65
2022-12-23T09:13:56.597Z,70
2022-12-23T09:14:57.154Z,70
2022-12-23T09:15:57.524Z,70
2022-12-23T09:16:56.832Z,65
2022-12-23T09:17:57.033Z,65
2022-12-23T09:18:57.035Z,65
2022-12-23T09:20:02.287Z,75
2022-12-23T09:20:57.003Z,85
2022-12-23T09:21:57.016Z,90
2022-12-23T09:22:56.963Z,85
2022-12-23T09:23:56.730Z,75
2022-12-23T09:25:04.964Z,75
2022-12-23T09:25:57.247Z,75
2022-12-23T09:26:56.702Z,80
2022-12-23T09:27:57.131Z,80
2022-12-23T09:28:57.120Z,85
2022-12-23T09:29:56.857Z,80
2022-12-23T09:30:57.226Z,80
2022-12-23T09:31:57.368Z,75
2022-12-23T09:32:56.555Z,80
2022-12-23T09:33:57.115Z,80
2022-12-23T09:34:56.786Z,85
2022-12-23T09:35:56.564Z,90
2022-12-23T09:37:04.241Z,110
2022-12-23T09:37:56.491Z,120
2022-12-23T09:38:56.757Z,120
2022-12-23T09:39:56.505Z,125
2022-12-23T09:40:56.291Z,125
2022-12-23T09:41:57.122Z,120
2022-12-23T09:42:56.193Z,115
2022-12-23T09:43:56.440Z,125
2022-12-23T09:44:56.921Z,135
2022-12-23T09:45:57.019Z,140
2022-12-23T09:46:56.744Z,130
2022-12-23T09:47:56.371Z,125
2022-12-23T09:48:56.880Z,105
2022-12-23T09:49:56.853Z,120
2022-12-23T09:50:55.833Z,130
2022-12-23T09:51:56.326Z,135
2022-12-23T09:52:56.578Z,140
2022-12-23T09:53:56.026Z,140
2022-12-23T09:54:56.545Z,135
2022-12-23T09:55:57.032Z,130
2022-12-23T09:56:56.812Z,130
2022-12-23T09:57:56.831Z,130
2022-12-23T09:58:56.457Z,130
2022-12-23T09:59:56.780Z,130
2022-12-23T10:00:56.442Z,125
2022-12-23T10:01:57.512Z,125
2022-12-23T10:02:58.034Z,115
2022-12-23T10:03:57.691Z,120
2022-12-23T10:04:56.408Z,120
2022-12-23T10:05:56.130Z,115
2022-12-23T10:07:05.357Z,110
2022-12-23T10:07:56.115Z,105
2022-12-23T10:08:56.374Z,105
2022-12-23T10:09:56.370Z,110
2022-12-23T10:10:56.352Z,115
2022-12-23T10:11:56.350Z,115
2022-12-23T10:12:56.621Z,120
2022-12-23T10:13:56.642Z,115
2022-12-23T10:14:56.537Z,100
2022-12-23T10:15:56.281Z,100
2022-12-23T10:16:56.329Z,110
2022-12-23T10:17:56.216Z,105
2022-12-23T10:18:56.501Z,105
2022-12-23T10:19:56.223Z,100
2022-12-23T10:20:55.761Z,100
2022-12-23T10:21:57.347Z,100
2022-12-23T10:22:56.167Z,115
2022-12-23T10:23:56.419Z,120
2022-12-23T10:24:56.488Z,130
2022-12-23T10:25:55.658Z,130
2022-12-23T10:26:56.161Z,125
2022-12-23T10:27:56.365Z,120
2022-12-23T10:28:56.391Z,130
2022-12-23T10:29:56.422Z,140
2022-12-23T10:31:49.314Z,160
2022-12-23T10:32:59.542Z,165
2022-12-23T10:33:59.354Z,165
2022-12-23T10:34:59.279Z,165
2022-12-23T10:35:59.212Z,165
2022-12-23T10:36:59.796Z,165
2022-12-23T10:37:58.739Z,155
2022-12-23T10:38:59.408Z,145
2022-12-23T10:39:59.294Z,140
2022-12-23T10:41:02.415Z,140
2022-12-23T10:41:58.981Z,135
2022-12-23T10:42:59.523Z,135
2022-12-23T10:44:00.000Z,120
2022-12-23T10:44:59.063Z,120
2022-12-23T10:45:58.980Z,110
2022-12-23T10:46:58.785Z,85
2022-12-23T10:47:59.717Z,80
2022-12-23T10:48:59.498Z,90
2022-12-23T10:49:59.645Z,115
2022-12-23T10:50:59.225Z,105
2022-12-23T10:51:59.460Z,115
2022-12-23T10:52:58.829Z,140
2022-12-23T10:53:59.500Z,140
2022-12-23T10:54:59.087Z,145
2022-12-23T10:55:58.821Z,150
2022-12-23T10:56:59.121Z,150
2022-12-23T10:57:59.500Z,150
2022-12-23T10:58:58.750Z,145
2022-12-23T10:59:58.580Z,145
2022-12-23T11:00:59.924Z,160
2022-12-23T11:02:00.168Z,150
2022-12-23T11:02:59.810Z,115
2022-12-23T11:03:59.739Z,115
2022-12-23T11:04:59.605Z,100
2022-12-23T11:05:58.187Z,105
2022-12-23T11:07:50.792Z,125
2022-12-23T11:09:00.318Z,125
2022-12-23T11:10:00.309Z,120
2022-12-23T11:11:00.564Z,120
2022-12-23T11:11:59.835Z,110
2022-12-23T11:13:00.362Z,110
2022-12-23T11:14:00.505Z,100
2022-12-23T11:15:00.789Z,100
2022-12-23T11:16:01.155Z,105
2022-12-23T11:17:01.015Z,105
2022-12-23T11:18:02.943Z,105
2022-12-23T11:19:00.240Z,105
2022-12-23T11:19:59.919Z,95
2022-12-23T11:21:00.167Z,105
2022-12-23T11:21:59.915Z,95
2022-12-23T11:23:00.510Z,95
2022-12-23T11:24:00.112Z,85
2022-12-23T11:25:00.613Z,110
2022-12-23T11:26:00.630Z,125
2022-12-23T11:26:59.828Z,125
2022-12-23T11:28:00.597Z,125
2022-12-23T11:29:00.304Z,125
2022-12-23T11:30:00.541Z,125
2022-12-23T11:31:05.977Z,120
2022-12-23T11:32:00.697Z,115
2022-12-23T11:33:00.349Z,110
2022-12-23T11:34:00.083Z,115
2022-12-23T11:35:00.330Z,110
2022-12-23T11:36:00.088Z,105
2022-12-23T11:37:12.790Z,100
2022-12-23T11:38:00.893Z,105
2022-12-23T11:39:00.897Z,105
2022-12-23T11:40:00.627Z,100
2022-12-23T11:41:01.980Z,105
2022-12-23T11:42:00.057Z,115
2022-12-23T11:43:04.848Z,120
2022-12-23T11:44:00.549Z,120
2022-12-23T11:45:01.390Z,120
2022-12-23T11:46:00.597Z,115
2022-12-23T11:47:00.931Z,105
2022-12-23T11:48:00.806Z,105
2022-12-23T11:49:03.991Z,105
2022-12-23T11:50:00.802Z,100
2022-12-23T11:51:00.723Z,100
2022-12-23T11:52:00.691Z,100
2022-12-23T11:53:00.201Z,100
2022-12-23T11:54:00.709Z,100
2022-12-23T11:55:03.712Z,100
2022-12-23T11:56:00.674Z,100
2022-12-23T11:57:00.851Z,105
2022-12-23T11:58:00.432Z,105
2022-12-23T11:59:00.591Z,105
2022-12-23T12:00:00.378Z,100
2022-12-23T12:01:04.927Z,100
2022-12-23T12:02:00.707Z,95
2022-12-23T12:03:01.279Z,95
2022-12-23T12:04:00.458Z,90
2022-12-23T12:05:00.602Z,90
2022-12-23T12:06:00.600Z,95
2022-12-23T12:07:05.741Z,100
2022-12-23T12:07:59.990Z,100
2022-12-23T12:09:00.443Z,105
2022-12-23T12:09:59.987Z,105
2022-12-23T12:11:00.214Z,110
2022-12-23T12:12:00.476Z,110
2022-12-23T12:13:04.144Z,110
2022-12-23T12:14:00.173Z,105
2022-12-23T12:14:59.938Z,105
2022-12-23T12:16:00.161Z,105
2022-12-23T12:17:00.090Z,100
2022-12-23T12:18:00.187Z,95
2022-12-23T12:19:05.399Z,90
2022-12-23T12:20:00.354Z,90
2022-12-23T12:21:00.218Z,85
2022-12-23T12:21:59.874Z,80
2022-12-23T12:23:00.350Z,80
2022-12-23T12:24:26.792Z,80
2022-12-23T12:24:59.805Z,80
2022-12-23T12:26:00.063Z,80
2022-12-23T12:27:00.211Z,80
2022-12-23T12:28:00.290Z,80
2022-12-23T12:28:59.760Z,75
2022-12-23T12:30:04.671Z,70
2022-12-23T12:31:00.415Z,70
2022-12-23T12:31:59.972Z,65
2022-12-23T12:32:59.974Z,65
2022-12-23T12:33:59.994Z,60
2022-12-23T12:35:00.107Z,60
2022-12-23T12:36:10.687Z,60
2022-12-23T12:37:00.429Z,65
2022-12-23T12:38:00.168Z,65
2022-12-23T12:38:59.915Z,70
2022-12-23T12:39:59.856Z,75
2022-12-23T12:40:59.840Z,80
2022-12-23T12:42:08.493Z,85
2022-12-23T12:42:59.891Z,85
2022-12-23T12:43:59.804Z,80
2022-12-23T12:44:59.555Z,75
2022-12-23T12:46:00.492Z,70
2022-12-23T12:47:00.116Z,65
2022-12-23T12:48:23.045Z,65
2022-12-23T12:48:59.226Z,65
2022-12-23T12:49:59.531Z,60
2022-12-23T12:50:59.805Z,60
2022-12-23T12:51:59.718Z,60
2022-12-23T12:52:59.471Z,60
2022-12-23T12:54:08.391Z,60
2022-12-23T12:54:59.930Z,60
2022-12-23T12:55:59.642Z,60
2022-12-23T12:56:59.646Z,60
2022-12-23T12:57:59.675Z,60
2022-12-23T12:58:59.864Z,55
2022-12-23T13:00:08.765Z,55
2022-12-23T13:00:59.406Z,55
2022-12-23T13:01:59.956Z,55
2022-12-23T13:02:59.952Z,55
2022-12-23T13:03:59.541Z,55
2022-12-23T13:04:59.280Z,60
2022-12-23T13:06:03.914Z,60
2022-12-23T13:06:59.267Z,65
2022-12-23T13:07:59.764Z,70
2022-12-23T13:08:59.534Z,70
2022-12-23T13:09:59.797Z,75
2022-12-23T13:10:59.747Z,75
2022-12-23T13:11:59.686Z,70
2022-12-23T13:12:59.158Z,70
2022-12-23T13:13:59.416Z,70
2022-12-23T13:14:59.161Z,65
2022-12-23T13:15:59.653Z,65
2022-12-23T13:17:00.027Z,60
2022-12-23T13:18:06.114Z,55
2022-12-23T13:18:59.367Z,50
2022-12-23T13:19:59.332Z,50
2022-12-23T13:20:59.554Z,45
2022-12-23T13:21:59.607Z,45
2022-12-23T13:23:42.092Z,45
2022-12-23T13:24:06.517Z,45
2022-12-23T13:24:59.792Z,45
2022-12-23T13:25:59.614Z,45
2022-12-23T13:26:59.004Z,45
2022-12-23T13:27:59.556Z,40
2022-12-23T13:28:59.425Z,40
2022-12-23T13:30:06.027Z,40
2022-12-23T13:30:59.830Z,45
2022-12-23T13:31:59.447Z,45
2022-12-23T13:32:59.718Z,50
2022-12-23T13:33:59.416Z,55
2022-12-23T13:34:59.357Z,55
2022-12-23T13:36:09.168Z,55
2022-12-23T13:36:59.474Z,55
2022-12-23T13:37:59.671Z,55
2022-12-23T13:38:59.551Z,55
2022-12-23T13:39:59.728Z,55
2022-12-23T13:40:58.834Z,50
2022-12-23T13:42:08.483Z,50
2022-12-23T13:42:58.503Z,50
2022-12-23T13:43:59.472Z,50
2022-12-23T13:44:58.728Z,45
2022-12-23T13:45:59.658Z,50
2022-12-23T13:46:59.533Z,50
2022-12-23T13:48:07.466Z,55
2022-12-23T13:48:58.694Z,55
2022-12-23T13:49:59.153Z,55
2022-12-23T13:50:59.250Z,55
2022-12-23T13:51:59.145Z,60
2022-12-23T13:52:58.858Z,60
2022-12-23T13:54:07.478Z,60
2022-12-23T13:54:59.623Z,55
2022-12-23T13:55:58.892Z,55
2022-12-23T13:56:59.086Z,50
2022-12-23T13:57:59.708Z,45
2022-12-23T13:58:58.801Z,45
2022-12-23T14:00:08.609Z,45
2022-12-23T14:00:58.982Z,40
2022-12-23T14:01:59.603Z,40
2022-12-23T14:02:59.592Z,40
2022-12-23T14:03:59.839Z,40
2022-12-23T14:04:59.153Z,40
2022-12-23T14:05:58.931Z,35
2022-12-23T14:06:59.440Z,35
2022-12-23T14:07:58.894Z,35
2022-12-23T14:08:59.461Z,35
2022-12-23T14:09:59.809Z,35
2022-12-23T14:10:59.916Z,35
2022-12-23T14:12:07.172Z,35
2022-12-23T14:12:59.660Z,30
2022-12-23T14:13:59.393Z,30
2022-12-23T14:14:59.112Z,30
2022-12-23T14:15:59.732Z,30
2022-12-23T14:16:59.057Z,30
2022-12-23T14:18:06.942Z,30
2022-12-23T14:18:59.594Z,25
2022-12-23T14:19:59.075Z,25
2022-12-23T14:20:58.810Z,20
2022-12-23T14:21:59.466Z,20
2022-12-23T14:22:59.251Z,15
2022-12-23T14:24:06.944Z,15
2022-12-23T14:24:59.529Z,10
2022-12-23T14:25:59.709Z,10
2022-12-23T14:26:59.223Z,10
2022-12-23T14:27:59.812Z,10
2022-12-23T14:28:59.544Z,5
2022-12-23T14:30:07.955Z,5
2022-12-23T14:30:59.906Z,5
2022-12-23T14:31:59.343Z,5
2022-12-23T14:32:59.475Z,5
2022-12-23T14:33:59.680Z,5
2022-12-23T14:34:59.169Z,5
2022-12-23T14:35:59.785Z,0
2022-12-23T14:36:59.344Z,5
2022-12-23T14:37:59.236Z,5
2022-12-23T14:38:59.421Z,5
2022-12-23T14:39:59.690Z,5
2022-12-23T14:40:59.396Z,5
2022-12-23T14:42:13.371Z,0
2022-12-23T14:42:58.867Z,0
2022-12-23T14:43:59.706Z,0
2022-12-23T14:44:59.249Z,0